sensor_id;sensor_type;location;lat;lon;timestamp;P1;durP1;ratioP1;P2;durP2;ratioP2
1759;SDS011;877;46.266;20.062;2024-03-25T00:01:34;11.50;;;4.63;;
1759;SDS011;877;46.266;20.062;2024-03-25T00:04:00;11.15;;;5.30;;
1759;SDS011;877;46.266;20.062;2024-03-25T00:06:26;8.53;;;5.30;;
1759;SDS011;877;46.266;20.062;2024-03-25T00:08:52;8.48;;;5.20;;
1759;SDS011;877;46.266;20.062;2024-03-25T00:11:18;8.60;;;5.18;;
1759;SDS011;877;46.266;20.062;2024-03-25T00:13:44;7.30;;;4.93;;
1759;SDS011;877;46.266;20.062;2024-03-25T00:16:11;8.32;;;4.97;;
1759;SDS011;877;46.266;20.062;2024-03-25T00:18:37;8.23;;;5.30;;
1759;SDS011;877;46.266;20.062;2024-03-25T00:21:03;8.52;;;4.90;;
1759;SDS011;877;46.266;20.062;2024-03-25T00:23:29;8.98;;;4.50;;
1759;SDS011;877;46.266;20.062;2024-03-25T00:25:55;8.13;;;4.60;;
1759;SDS011;877;46.266;20.062;2024-03-25T00:28:21;7.57;;;4.90;;
1759;SDS011;877;46.266;20.062;2024-03-25T00:30:48;8.25;;;4.60;;
1759;SDS011;877;46.266;20.062;2024-03-25T00:33:14;7.55;;;4.90;;
1759;SDS011;877;46.266;20.062;2024-03-25T00:35:42;6.85;;;4.20;;
1759;SDS011;877;46.266;20.062;2024-03-25T00:38:08;6.93;;;4.50;;
1759;SDS011;877;46.266;20.062;2024-03-25T00:40:34;6.53;;;4.40;;
1759;SDS011;877;46.266;20.062;2024-03-25T00:43:01;6.47;;;3.97;;
1759;SDS011;877;46.266;20.062;2024-03-25T00:45:27;6.20;;;3.78;;
1759;SDS011;877;46.266;20.062;2024-03-25T00:47:56;6.30;;;3.63;;
1759;SDS011;877;46.266;20.062;2024-03-25T00:50:22;7.45;;;4.05;;
1759;SDS011;877;46.266;20.062;2024-03-25T00:52:48;7.40;;;4.20;;
1759;SDS011;877;46.266;20.062;2024-03-25T00:55:14;8.43;;;3.92;;
1759;SDS011;877;46.266;20.062;2024-03-25T00:57:40;7.72;;;3.90;;
1759;SDS011;877;46.266;20.062;2024-03-25T01:00:06;7.35;;;4.40;;
1759;SDS011;877;46.266;20.062;2024-03-25T01:02:33;7.13;;;4.22;;
1759;SDS011;877;46.266;20.062;2024-03-25T01:04:59;8.02;;;4.50;;
1759;SDS011;877;46.266;20.062;2024-03-25T01:07:25;5.93;;;3.53;;
1759;SDS011;877;46.266;20.062;2024-03-25T01:09:51;6.23;;;3.57;;
1759;SDS011;877;46.266;20.062;2024-03-25T01:12:17;6.95;;;3.90;;
1759;SDS011;877;46.266;20.062;2024-03-25T01:14:43;7.05;;;4.00;;
1759;SDS011;877;46.266;20.062;2024-03-25T01:17:09;5.32;;;3.17;;
1759;SDS011;877;46.266;20.062;2024-03-25T01:19:36;7.47;;;4.63;;
1759;SDS011;877;46.266;20.062;2024-03-25T01:22:02;6.70;;;3.75;;
1759;SDS011;877;46.266;20.062;2024-03-25T01:24:29;5.00;;;3.17;;
1759;SDS011;877;46.266;20.062;2024-03-25T01:26:55;5.10;;;3.20;;
1759;SDS011;877;46.266;20.062;2024-03-25T01:29:21;8.07;;;4.43;;
1759;SDS011;877;46.266;20.062;2024-03-25T01:31:47;8.52;;;3.33;;
1759;SDS011;877;46.266;20.062;2024-03-25T01:34:13;5.38;;;2.92;;
1759;SDS011;877;46.266;20.062;2024-03-25T01:36:39;8.05;;;4.30;;
1759;SDS011;877;46.266;20.062;2024-03-25T01:39:05;6.07;;;3.75;;
1759;SDS011;877;46.266;20.062;2024-03-25T01:41:32;6.30;;;3.70;;
1759;SDS011;877;46.266;20.062;2024-03-25T01:43:58;6.57;;;3.58;;
1759;SDS011;877;46.266;20.062;2024-03-25T01:46:24;7.15;;;3.45;;
1759;SDS011;877;46.266;20.062;2024-03-25T01:48:50;6.28;;;2.95;;
1759;SDS011;877;46.266;20.062;2024-03-25T01:51:18;5.20;;;3.33;;
1759;SDS011;877;46.266;20.062;2024-03-25T01:53:45;6.00;;;3.95;;
1759;SDS011;877;46.266;20.062;2024-03-25T01:56:12;7.13;;;3.20;;
1759;SDS011;877;46.266;20.062;2024-03-25T01:58:39;6.35;;;3.55;;
1759;SDS011;877;46.266;20.062;2024-03-25T02:01:05;5.30;;;3.40;;
1759;SDS011;877;46.266;20.062;2024-03-25T02:03:33;5.60;;;3.20;;
1759;SDS011;877;46.266;20.062;2024-03-25T02:06:03;6.38;;;3.95;;
1759;SDS011;877;46.266;20.062;2024-03-25T02:08:30;5.72;;;3.60;;
1759;SDS011;877;46.266;20.062;2024-03-25T02:10:57;6.65;;;3.55;;
1759;SDS011;877;46.266;20.062;2024-03-25T02:13:23;6.65;;;3.28;;
1759;SDS011;877;46.266;20.062;2024-03-25T02:15:50;5.88;;;3.67;;
1759;SDS011;877;46.266;20.062;2024-03-25T02:18:19;7.25;;;4.15;;
1759;SDS011;877;46.266;20.062;2024-03-25T02:20:46;7.70;;;4.15;;
1759;SDS011;877;46.266;20.062;2024-03-25T02:23:13;6.45;;;3.70;;
1759;SDS011;877;46.266;20.062;2024-03-25T02:25:41;6.72;;;3.53;;
1759;SDS011;877;46.266;20.062;2024-03-25T02:28:08;7.47;;;3.78;;
1759;SDS011;877;46.266;20.062;2024-03-25T02:30:34;5.25;;;3.30;;
1759;SDS011;877;46.266;20.062;2024-03-25T02:33:02;5.50;;;3.22;;
1759;SDS011;877;46.266;20.062;2024-03-25T02:35:28;6.95;;;3.47;;
1759;SDS011;877;46.266;20.062;2024-03-25T02:37:54;5.45;;;3.47;;
1759;SDS011;877;46.266;20.062;2024-03-25T02:40:26;10.65;;;6.03;;
1759;SDS011;877;46.266;20.062;2024-03-25T02:42:52;6.25;;;3.65;;
1759;SDS011;877;46.266;20.062;2024-03-25T02:45:19;10.05;;;4.65;;
1759;SDS011;877;46.266;20.062;2024-03-25T02:47:45;11.05;;;5.75;;
1759;SDS011;877;46.266;20.062;2024-03-25T02:50:11;10.13;;;4.45;;
1759;SDS011;877;46.266;20.062;2024-03-25T02:52:38;8.18;;;4.35;;
1759;SDS011;877;46.266;20.062;2024-03-25T02:55:04;8.68;;;4.20;;
1759;SDS011;877;46.266;20.062;2024-03-25T02:57:30;7.13;;;3.45;;
1759;SDS011;877;46.266;20.062;2024-03-25T02:59:56;6.90;;;3.60;;
1759;SDS011;877;46.266;20.062;2024-03-25T03:02:22;6.43;;;3.60;;
1759;SDS011;877;46.266;20.062;2024-03-25T03:04:48;7.40;;;4.30;;
1759;SDS011;877;46.266;20.062;2024-03-25T03:07:14;6.05;;;3.47;;
1759;SDS011;877;46.266;20.062;2024-03-25T03:09:40;8.27;;;4.13;;
1759;SDS011;877;46.266;20.062;2024-03-25T03:12:07;8.85;;;3.92;;
1759;SDS011;877;46.266;20.062;2024-03-25T03:14:33;5.00;;;3.13;;
1759;SDS011;877;46.266;20.062;2024-03-25T03:16:59;4.90;;;3.13;;
1759;SDS011;877;46.266;20.062;2024-03-25T03:19:30;5.97;;;3.60;;
1759;SDS011;877;46.266;20.062;2024-03-25T03:21:56;5.25;;;3.55;;
1759;SDS011;877;46.266;20.062;2024-03-25T03:24:23;8.68;;;4.15;;
1759;SDS011;877;46.266;20.062;2024-03-25T03:26:49;9.65;;;4.88;;
1759;SDS011;877;46.266;20.062;2024-03-25T03:29:15;6.88;;;4.00;;
1759;SDS011;877;46.266;20.062;2024-03-25T03:31:43;5.90;;;3.47;;
1759;SDS011;877;46.266;20.062;2024-03-25T03:34:09;8.20;;;3.40;;
1759;SDS011;877;46.266;20.062;2024-03-25T03:36:35;5.85;;;2.90;;
1759;SDS011;877;46.266;20.062;2024-03-25T03:39:01;5.07;;;3.25;;
1759;SDS011;877;46.266;20.062;2024-03-25T03:41:28;5.82;;;3.20;;
1759;SDS011;877;46.266;20.062;2024-03-25T03:43:54;6.93;;;3.42;;
1759;SDS011;877;46.266;20.062;2024-03-25T03:46:20;5.72;;;3.50;;
1759;SDS011;877;46.266;20.062;2024-03-25T03:48:46;5.72;;;3.08;;
1759;SDS011;877;46.266;20.062;2024-03-25T03:51:12;7.38;;;4.03;;
1759;SDS011;877;46.266;20.062;2024-03-25T03:53:38;6.63;;;3.78;;
1759;SDS011;877;46.266;20.062;2024-03-25T03:56:05;5.70;;;4.00;;
1759;SDS011;877;46.266;20.062;2024-03-25T03:58:31;6.97;;;3.78;;
1759;SDS011;877;46.266;20.062;2024-03-25T04:00:57;6.32;;;3.17;;
1759;SDS011;877;46.266;20.062;2024-03-25T04:03:23;7.70;;;3.67;;
1759;SDS011;877;46.266;20.062;2024-03-25T04:05:49;6.28;;;3.67;;
1759;SDS011;877;46.266;20.062;2024-03-25T04:08:16;6.75;;;3.63;;
1759;SDS011;877;46.266;20.062;2024-03-25T04:10:43;5.65;;;3.60;;
1759;SDS011;877;46.266;20.062;2024-03-25T04:13:09;7.75;;;3.92;;
1759;SDS011;877;46.266;20.062;2024-03-25T04:15:36;6.53;;;3.47;;
1759;SDS011;877;46.266;20.062;2024-03-25T04:18:03;7.75;;;4.45;;
1759;SDS011;877;46.266;20.062;2024-03-25T04:20:29;8.68;;;5.15;;
1759;SDS011;877;46.266;20.062;2024-03-25T04:22:55;9.57;;;5.50;;
1759;SDS011;877;46.266;20.062;2024-03-25T04:25:22;12.55;;;7.55;;
1759;SDS011;877;46.266;20.062;2024-03-25T04:27:48;14.10;;;8.13;;
1759;SDS011;877;46.266;20.062;2024-03-25T04:30:14;21.13;;;8.60;;
1759;SDS011;877;46.266;20.062;2024-03-25T04:32:40;12.00;;;7.63;;
1759;SDS011;877;46.266;20.062;2024-03-25T04:35:08;11.25;;;5.78;;
1759;SDS011;877;46.266;20.062;2024-03-25T04:37:34;10.45;;;5.45;;
1759;SDS011;877;46.266;20.062;2024-03-25T04:40:01;8.30;;;5.00;;
1759;SDS011;877;46.266;20.062;2024-03-25T04:42:28;8.07;;;4.28;;
1759;SDS011;877;46.266;20.062;2024-03-25T04:44:54;6.53;;;4.22;;
1759;SDS011;877;46.266;20.062;2024-03-25T04:47:20;5.85;;;3.90;;
1759;SDS011;877;46.266;20.062;2024-03-25T04:49:46;6.63;;;4.10;;
1759;SDS011;877;46.266;20.062;2024-03-25T04:52:12;7.63;;;4.75;;
1759;SDS011;877;46.266;20.062;2024-03-25T04:54:39;6.13;;;3.40;;
1759;SDS011;877;46.266;20.062;2024-03-25T04:57:05;9.23;;;3.70;;
1759;SDS011;877;46.266;20.062;2024-03-25T04:59:31;6.30;;;3.63;;
1759;SDS011;877;46.266;20.062;2024-03-25T05:01:58;6.72;;;3.22;;
1759;SDS011;877;46.266;20.062;2024-03-25T05:04:25;6.85;;;3.65;;
1759;SDS011;877;46.266;20.062;2024-03-25T05:06:51;8.75;;;3.10;;
1759;SDS011;877;46.266;20.062;2024-03-25T05:09:17;9.25;;;3.70;;
1759;SDS011;877;46.266;20.062;2024-03-25T05:11:43;6.05;;;2.90;;
1759;SDS011;877;46.266;20.062;2024-03-25T05:14:09;5.45;;;3.17;;
1759;SDS011;877;46.266;20.062;2024-03-25T05:16:35;6.00;;;3.00;;
1759;SDS011;877;46.266;20.062;2024-03-25T05:19:02;5.20;;;3.25;;
1759;SDS011;877;46.266;20.062;2024-03-25T05:21:29;5.82;;;3.15;;
1759;SDS011;877;46.266;20.062;2024-03-25T05:23:56;6.85;;;4.03;;
1759;SDS011;877;46.266;20.062;2024-03-25T05:26:22;5.57;;;3.30;;
1759;SDS011;877;46.266;20.062;2024-03-25T05:28:54;9.68;;;3.50;;
1759;SDS011;877;46.266;20.062;2024-03-25T05:31:21;7.82;;;4.47;;
1759;SDS011;877;46.266;20.062;2024-03-25T05:33:47;8.00;;;4.32;;
1759;SDS011;877;46.266;20.062;2024-03-25T05:36:13;6.07;;;3.83;;
1759;SDS011;877;46.266;20.062;2024-03-25T05:38:40;7.50;;;4.68;;
1759;SDS011;877;46.266;20.062;2024-03-25T05:41:07;6.10;;;4.25;;
1759;SDS011;877;46.266;20.062;2024-03-25T05:43:34;5.57;;;3.78;;
1759;SDS011;877;46.266;20.062;2024-03-25T05:46:00;6.37;;;4.03;;
1759;SDS011;877;46.266;20.062;2024-03-25T05:48:26;6.00;;;3.80;;
1759;SDS011;877;46.266;20.062;2024-03-25T05:51:02;6.68;;;4.35;;
1759;SDS011;877;46.266;20.062;2024-03-25T05:53:30;6.55;;;4.60;;
1759;SDS011;877;46.266;20.062;2024-03-25T05:55:56;8.18;;;5.30;;
1759;SDS011;877;46.266;20.062;2024-03-25T05:58:26;9.30;;;8.20;;
1759;SDS011;877;46.266;20.062;2024-03-25T06:00:52;8.63;;;5.32;;
1759;SDS011;877;46.266;20.062;2024-03-25T06:03:18;7.72;;;5.05;;
1759;SDS011;877;46.266;20.062;2024-03-25T06:05:44;7.50;;;5.00;;
1759;SDS011;877;46.266;20.062;2024-03-25T06:08:11;6.55;;;4.90;;
1759;SDS011;877;46.266;20.062;2024-03-25T06:10:45;8.25;;;5.65;;
1759;SDS011;877;46.266;20.062;2024-03-25T06:13:12;5.80;;;4.45;;
1759;SDS011;877;46.266;20.062;2024-03-25T06:15:38;7.85;;;4.00;;
1759;SDS011;877;46.266;20.062;2024-03-25T06:18:05;6.53;;;3.63;;
1759;SDS011;877;46.266;20.062;2024-03-25T06:20:31;8.60;;;4.82;;
1759;SDS011;877;46.266;20.062;2024-03-25T06:22:57;7.00;;;4.70;;
1759;SDS011;877;46.266;20.062;2024-03-25T06:25:23;7.70;;;4.20;;
1759;SDS011;877;46.266;20.062;2024-03-25T06:27:49;6.13;;;3.65;;
1759;SDS011;877;46.266;20.062;2024-03-25T06:30:15;5.70;;;3.13;;
1759;SDS011;877;46.266;20.062;2024-03-25T06:33:00;5.18;;;2.80;;
1759;SDS011;877;46.266;20.062;2024-03-25T06:35:45;4.45;;;2.72;;
1759;SDS011;877;46.266;20.062;2024-03-25T06:38:11;5.57;;;2.40;;
1759;SDS011;877;46.266;20.062;2024-03-25T06:40:37;4.25;;;2.22;;
1759;SDS011;877;46.266;20.062;2024-03-25T06:43:04;4.15;;;2.45;;
1759;SDS011;877;46.266;20.062;2024-03-25T06:45:30;3.87;;;1.90;;
1759;SDS011;877;46.266;20.062;2024-03-25T06:47:57;5.10;;;2.60;;
1759;SDS011;877;46.266;20.062;2024-03-25T06:50:23;5.00;;;2.60;;
1759;SDS011;877;46.266;20.062;2024-03-25T06:52:50;4.03;;;2.33;;
1759;SDS011;877;46.266;20.062;2024-03-25T06:55:16;5.57;;;2.50;;
1759;SDS011;877;46.266;20.062;2024-03-25T06:57:47;5.40;;;2.70;;
1759;SDS011;877;46.266;20.062;2024-03-25T07:00:13;9.93;;;2.53;;
1759;SDS011;877;46.266;20.062;2024-03-25T07:02:40;4.70;;;2.00;;
1759;SDS011;877;46.266;20.062;2024-03-25T07:05:06;4.17;;;1.87;;
1759;SDS011;877;46.266;20.062;2024-03-25T07:07:32;4.30;;;2.00;;
1759;SDS011;877;46.266;20.062;2024-03-25T07:09:59;4.67;;;1.97;;
1759;SDS011;877;46.266;20.062;2024-03-25T07:12:25;3.93;;;1.93;;
1759;SDS011;877;46.266;20.062;2024-03-25T07:14:51;4.40;;;2.00;;
1759;SDS011;877;46.266;20.062;2024-03-25T07:17:18;6.43;;;2.00;;
1759;SDS011;877;46.266;20.062;2024-03-25T07:19:44;3.67;;;1.80;;
1759;SDS011;877;46.266;20.062;2024-03-25T07:22:10;5.77;;;2.00;;
1759;SDS011;877;46.266;20.062;2024-03-25T07:24:36;4.90;;;2.00;;
1759;SDS011;877;46.266;20.062;2024-03-25T07:27:02;3.87;;;1.80;;
1759;SDS011;877;46.266;20.062;2024-03-25T07:29:28;3.67;;;1.70;;
1759;SDS011;877;46.266;20.062;2024-03-25T07:31:54;4.70;;;1.77;;
1759;SDS011;877;46.266;20.062;2024-03-25T07:34:19;11.03;;;1.90;;
1759;SDS011;877;46.266;20.062;2024-03-25T07:36:45;3.43;;;1.73;;
1759;SDS011;877;46.266;20.062;2024-03-25T07:39:13;4.17;;;2.13;;
1759;SDS011;877;46.266;20.062;2024-03-25T07:41:39;3.97;;;1.60;;
1759;SDS011;877;46.266;20.062;2024-03-25T07:44:06;3.73;;;1.80;;
1759;SDS011;877;46.266;20.062;2024-03-25T07:46:31;5.17;;;2.17;;
1759;SDS011;877;46.266;20.062;2024-03-25T07:48:57;3.80;;;1.60;;
1759;SDS011;877;46.266;20.062;2024-03-25T07:51:24;4.43;;;1.67;;
1759;SDS011;877;46.266;20.062;2024-03-25T07:53:50;4.90;;;2.10;;
1759;SDS011;877;46.266;20.062;2024-03-25T07:56:16;3.60;;;2.03;;
1759;SDS011;877;46.266;20.062;2024-03-25T07:58:42;3.80;;;1.80;;
1759;SDS011;877;46.266;20.062;2024-03-25T08:01:08;3.07;;;1.30;;
1759;SDS011;877;46.266;20.062;2024-03-25T08:03:34;4.37;;;1.50;;
1759;SDS011;877;46.266;20.062;2024-03-25T08:06:00;2.80;;;1.23;;
1759;SDS011;877;46.266;20.062;2024-03-25T08:08:27;3.10;;;1.27;;
1759;SDS011;877;46.266;20.062;2024-03-25T08:10:54;3.30;;;1.33;;
1759;SDS011;877;46.266;20.062;2024-03-25T08:13:21;3.00;;;1.30;;
1759;SDS011;877;46.266;20.062;2024-03-25T08:15:47;3.43;;;1.50;;
1759;SDS011;877;46.266;20.062;2024-03-25T08:18:13;3.83;;;1.70;;
1759;SDS011;877;46.266;20.062;2024-03-25T08:20:39;4.17;;;2.27;;
1759;SDS011;877;46.266;20.062;2024-03-25T08:23:05;5.47;;;1.90;;
1759;SDS011;877;46.266;20.062;2024-03-25T08:25:32;4.70;;;1.90;;
1759;SDS011;877;46.266;20.062;2024-03-25T08:27:58;3.70;;;1.70;;
1759;SDS011;877;46.266;20.062;2024-03-25T08:30:24;5.00;;;1.50;;
1759;SDS011;877;46.266;20.062;2024-03-25T08:32:50;4.13;;;1.43;;
1759;SDS011;877;46.266;20.062;2024-03-25T08:35:17;4.17;;;1.70;;
1759;SDS011;877;46.266;20.062;2024-03-25T08:37:43;6.30;;;1.70;;
1759;SDS011;877;46.266;20.062;2024-03-25T08:40:10;4.40;;;1.50;;
1759;SDS011;877;46.266;20.062;2024-03-25T08:42:36;3.70;;;1.30;;
1759;SDS011;877;46.266;20.062;2024-03-25T08:45:02;4.90;;;1.77;;
1759;SDS011;877;46.266;20.062;2024-03-25T08:47:28;3.50;;;1.50;;
1759;SDS011;877;46.266;20.062;2024-03-25T08:49:55;4.83;;;1.73;;
1759;SDS011;877;46.266;20.062;2024-03-25T08:52:21;3.47;;;1.20;;
1759;SDS011;877;46.266;20.062;2024-03-25T08:54:48;7.37;;;1.47;;
1759;SDS011;877;46.266;20.062;2024-03-25T08:57:15;3.43;;;1.47;;
1759;SDS011;877;46.266;20.062;2024-03-25T08:59:41;3.00;;;1.30;;
1759;SDS011;877;46.266;20.062;2024-03-25T09:02:07;4.83;;;1.80;;
1759;SDS011;877;46.266;20.062;2024-03-25T09:04:33;6.50;;;1.70;;
1759;SDS011;877;46.266;20.062;2024-03-25T09:06:59;3.43;;;1.37;;
1759;SDS011;877;46.266;20.062;2024-03-25T09:09:25;3.70;;;1.43;;
1759;SDS011;877;46.266;20.062;2024-03-25T09:12:10;3.10;;;1.47;;
1759;SDS011;877;46.266;20.062;2024-03-25T09:14:37;4.40;;;1.67;;
1759;SDS011;877;46.266;20.062;2024-03-25T09:17:03;3.47;;;1.63;;
1759;SDS011;877;46.266;20.062;2024-03-25T09:19:30;4.50;;;1.73;;
1759;SDS011;877;46.266;20.062;2024-03-25T09:21:56;3.90;;;1.60;;
1759;SDS011;877;46.266;20.062;2024-03-25T09:24:22;3.50;;;2.07;;
1759;SDS011;877;46.266;20.062;2024-03-25T09:26:51;3.00;;;1.37;;
1759;SDS011;877;46.266;20.062;2024-03-25T09:29:17;4.30;;;1.93;;
1759;SDS011;877;46.266;20.062;2024-03-25T09:31:43;2.93;;;1.50;;
1759;SDS011;877;46.266;20.062;2024-03-25T09:34:09;3.57;;;1.57;;
1759;SDS011;877;46.266;20.062;2024-03-25T09:36:35;7.00;;;1.90;;
1759;SDS011;877;46.266;20.062;2024-03-25T09:39:02;4.13;;;1.60;;
1759;SDS011;877;46.266;20.062;2024-03-25T09:41:29;6.57;;;2.27;;
1759;SDS011;877;46.266;20.062;2024-03-25T09:43:59;3.30;;;1.30;;
1759;SDS011;877;46.266;20.062;2024-03-25T09:46:26;4.10;;;1.67;;
1759;SDS011;877;46.266;20.062;2024-03-25T09:48:52;5.07;;;1.30;;
1759;SDS011;877;46.266;20.062;2024-03-25T09:51:19;3.43;;;1.60;;
1759;SDS011;877;46.266;20.062;2024-03-25T09:53:46;3.70;;;1.47;;
1759;SDS011;877;46.266;20.062;2024-03-25T09:56:13;6.40;;;1.63;;
1759;SDS011;877;46.266;20.062;2024-03-25T09:58:40;7.63;;;1.30;;
1759;SDS011;877;46.266;20.062;2024-03-25T10:01:06;6.73;;;1.57;;
1759;SDS011;877;46.266;20.062;2024-03-25T10:03:32;5.93;;;1.63;;
1759;SDS011;877;46.266;20.062;2024-03-25T10:05:58;5.00;;;2.13;;
1759;SDS011;877;46.266;20.062;2024-03-25T10:08:24;5.30;;;1.70;;
1759;SDS011;877;46.266;20.062;2024-03-25T10:10:57;4.20;;;2.03;;
1759;SDS011;877;46.266;20.062;2024-03-25T10:13:24;4.80;;;1.83;;
1759;SDS011;877;46.266;20.062;2024-03-25T10:15:52;3.30;;;1.40;;
1759;SDS011;877;46.266;20.062;2024-03-25T10:18:19;4.33;;;1.83;;
1759;SDS011;877;46.266;20.062;2024-03-25T10:20:49;5.10;;;3.20;;
1759;SDS011;877;46.266;20.062;2024-03-25T10:23:15;6.50;;;2.10;;
1759;SDS011;877;46.266;20.062;2024-03-25T10:25:41;5.57;;;2.07;;
1759;SDS011;877;46.266;20.062;2024-03-25T10:28:08;6.70;;;2.30;;
1759;SDS011;877;46.266;20.062;2024-03-25T10:30:34;3.50;;;1.80;;
1759;SDS011;877;46.266;20.062;2024-03-25T10:33:03;5.43;;;1.97;;
1759;SDS011;877;46.266;20.062;2024-03-25T10:35:33;5.10;;;2.60;;
1759;SDS011;877;46.266;20.062;2024-03-25T10:38:03;9.03;;;2.10;;
1759;SDS011;877;46.266;20.062;2024-03-25T10:40:36;4.10;;;1.90;;
1759;SDS011;877;46.266;20.062;2024-03-25T10:43:03;5.50;;;1.97;;
1759;SDS011;877;46.266;20.062;2024-03-25T10:45:32;3.77;;;1.60;;
1759;SDS011;877;46.266;20.062;2024-03-25T10:47:59;3.40;;;1.40;;
1759;SDS011;877;46.266;20.062;2024-03-25T10:50:28;3.90;;;1.97;;
1759;SDS011;877;46.266;20.062;2024-03-25T10:52:55;3.90;;;1.60;;
1759;SDS011;877;46.266;20.062;2024-03-25T10:55:22;4.20;;;1.50;;
1759;SDS011;877;46.266;20.062;2024-03-25T10:57:48;4.90;;;1.53;;
1759;SDS011;877;46.266;20.062;2024-03-25T11:00:15;3.93;;;1.70;;
1759;SDS011;877;46.266;20.062;2024-03-25T11:02:42;3.03;;;1.23;;
1759;SDS011;877;46.266;20.062;2024-03-25T11:05:09;4.00;;;1.60;;
1759;SDS011;877;46.266;20.062;2024-03-25T11:07:36;4.63;;;1.43;;
1759;SDS011;877;46.266;20.062;2024-03-25T11:10:07;6.80;;;1.57;;
1759;SDS011;877;46.266;20.062;2024-03-25T11:12:37;4.37;;;1.70;;
1759;SDS011;877;46.266;20.062;2024-03-25T11:15:06;3.30;;;1.30;;
1759;SDS011;877;46.266;20.062;2024-03-25T11:17:33;5.60;;;1.20;;
1759;SDS011;877;46.266;20.062;2024-03-25T11:20:12;5.33;;;1.30;;
1759;SDS011;877;46.266;20.062;2024-03-25T11:22:52;2.80;;;1.10;;
1759;SDS011;877;46.266;20.062;2024-03-25T11:25:20;3.73;;;1.67;;
1759;SDS011;877;46.266;20.062;2024-03-25T11:27:47;4.73;;;1.23;;
1759;SDS011;877;46.266;20.062;2024-03-25T11:30:13;3.00;;;1.50;;
1759;SDS011;877;46.266;20.062;2024-03-25T11:32:44;5.13;;;1.70;;
1759;SDS011;877;46.266;20.062;2024-03-25T11:35:10;4.50;;;1.60;;
1759;SDS011;877;46.266;20.062;2024-03-25T11:37:42;5.50;;;3.47;;
1759;SDS011;877;46.266;20.062;2024-03-25T11:40:09;3.27;;;1.23;;
1759;SDS011;877;46.266;20.062;2024-03-25T11:42:38;3.07;;;1.30;;
1759;SDS011;877;46.266;20.062;2024-03-25T11:45:07;6.50;;;3.10;;
1759;SDS011;877;46.266;20.062;2024-03-25T11:47:33;4.60;;;2.67;;
1759;SDS011;877;46.266;20.062;2024-03-25T11:50:00;4.57;;;1.70;;
1759;SDS011;877;46.266;20.062;2024-03-25T11:52:32;4.90;;;2.50;;
1759;SDS011;877;46.266;20.062;2024-03-25T11:54:58;5.93;;;2.07;;
1759;SDS011;877;46.266;20.062;2024-03-25T11:57:24;3.87;;;1.80;;
1759;SDS011;877;46.266;20.062;2024-03-25T11:59:50;6.63;;;2.60;;
1759;SDS011;877;46.266;20.062;2024-03-25T12:02:17;5.93;;;1.60;;
1759;SDS011;877;46.266;20.062;2024-03-25T12:04:44;6.40;;;1.60;;
1759;SDS011;877;46.266;20.062;2024-03-25T12:07:11;9.13;;;3.33;;
1759;SDS011;877;46.266;20.062;2024-03-25T12:09:37;5.20;;;1.30;;
1759;SDS011;877;46.266;20.062;2024-03-25T12:12:22;4.30;;;1.67;;
1759;SDS011;877;46.266;20.062;2024-03-25T12:14:49;4.23;;;1.33;;
1759;SDS011;877;46.266;20.062;2024-03-25T12:17:15;5.63;;;1.40;;
1759;SDS011;877;46.266;20.062;2024-03-25T12:19:42;5.00;;;1.80;;
1759;SDS011;877;46.266;20.062;2024-03-25T12:22:08;9.63;;;2.07;;
1759;SDS011;877;46.266;20.062;2024-03-25T12:24:34;4.30;;;2.00;;
1759;SDS011;877;46.266;20.062;2024-03-25T12:27:01;2.90;;;1.40;;
1759;SDS011;877;46.266;20.062;2024-03-25T12:29:28;3.23;;;1.50;;
1759;SDS011;877;46.266;20.062;2024-03-25T12:31:57;2.60;;;1.10;;
1759;SDS011;877;46.266;20.062;2024-03-25T12:34:26;4.87;;;1.30;;
1759;SDS011;877;46.266;20.062;2024-03-25T12:37:00;4.57;;;2.27;;
1759;SDS011;877;46.266;20.062;2024-03-25T12:39:26;3.73;;;1.30;;
1759;SDS011;877;46.266;20.062;2024-03-25T12:41:53;3.70;;;1.20;;
1759;SDS011;877;46.266;20.062;2024-03-25T12:44:20;4.10;;;2.07;;
1759;SDS011;877;46.266;20.062;2024-03-25T12:46:47;3.73;;;1.60;;
1759;SDS011;877;46.266;20.062;2024-03-25T12:49:13;3.40;;;1.60;;
1759;SDS011;877;46.266;20.062;2024-03-25T12:51:39;5.90;;;1.70;;
1759;SDS011;877;46.266;20.062;2024-03-25T12:54:05;5.60;;;2.30;;
1759;SDS011;877;46.266;20.062;2024-03-25T12:56:31;6.03;;;1.90;;
1759;SDS011;877;46.266;20.062;2024-03-25T12:58:57;3.23;;;1.47;;
1759;SDS011;877;46.266;20.062;2024-03-25T13:01:23;4.43;;;1.90;;
1759;SDS011;877;46.266;20.062;2024-03-25T13:03:49;3.50;;;1.50;;
1759;SDS011;877;46.266;20.062;2024-03-25T13:06:15;3.80;;;1.67;;
1759;SDS011;877;46.266;20.062;2024-03-25T13:08:41;3.30;;;1.70;;
1759;SDS011;877;46.266;20.062;2024-03-25T13:11:07;3.90;;;1.77;;
1759;SDS011;877;46.266;20.062;2024-03-25T13:13:33;3.63;;;1.60;;
1759;SDS011;877;46.266;20.062;2024-03-25T13:15:59;3.80;;;1.87;;
1759;SDS011;877;46.266;20.062;2024-03-25T13:18:25;4.10;;;1.70;;
1759;SDS011;877;46.266;20.062;2024-03-25T13:20:51;4.10;;;1.53;;
1759;SDS011;877;46.266;20.062;2024-03-25T13:23:17;9.57;;;2.30;;
1759;SDS011;877;46.266;20.062;2024-03-25T13:25:43;11.57;;;4.43;;
1759;SDS011;877;46.266;20.062;2024-03-25T13:28:09;4.73;;;1.70;;
1759;SDS011;877;46.266;20.062;2024-03-25T13:30:35;8.63;;;1.80;;
1759;SDS011;877;46.266;20.062;2024-03-25T13:33:01;7.33;;;1.70;;
1759;SDS011;877;46.266;20.062;2024-03-25T13:35:27;3.20;;;1.30;;
1759;SDS011;877;46.266;20.062;2024-03-25T13:37:53;4.00;;;1.40;;
1759;SDS011;877;46.266;20.062;2024-03-25T13:40:19;5.73;;;1.40;;
1759;SDS011;877;46.266;20.062;2024-03-25T13:42:45;4.37;;;1.23;;
1759;SDS011;877;46.266;20.062;2024-03-25T13:45:12;4.10;;;1.60;;
1759;SDS011;877;46.266;20.062;2024-03-25T13:47:38;4.00;;;1.17;;
1759;SDS011;877;46.266;20.062;2024-03-25T13:50:05;3.40;;;1.50;;
1759;SDS011;877;46.266;20.062;2024-03-25T13:52:34;5.90;;;1.10;;
1759;SDS011;877;46.266;20.062;2024-03-25T13:55:01;2.70;;;1.00;;
1759;SDS011;877;46.266;20.062;2024-03-25T13:57:27;3.40;;;1.97;;
1759;SDS011;877;46.266;20.062;2024-03-25T13:59:53;3.77;;;1.20;;
1759;SDS011;877;46.266;20.062;2024-03-25T14:02:19;2.60;;;0.90;;
1759;SDS011;877;46.266;20.062;2024-03-25T14:04:46;3.17;;;1.10;;
1759;SDS011;877;46.266;20.062;2024-03-25T14:07:12;3.23;;;1.30;;
1759;SDS011;877;46.266;20.062;2024-03-25T14:09:39;3.53;;;1.60;;
1759;SDS011;877;46.266;20.062;2024-03-25T14:12:05;3.90;;;1.57;;
1759;SDS011;877;46.266;20.062;2024-03-25T14:14:31;4.13;;;1.43;;
1759;SDS011;877;46.266;20.062;2024-03-25T14:16:57;2.80;;;1.40;;
1759;SDS011;877;46.266;20.062;2024-03-25T14:19:24;3.77;;;2.17;;
1759;SDS011;877;46.266;20.062;2024-03-25T14:21:51;4.70;;;2.10;;
1759;SDS011;877;46.266;20.062;2024-03-25T14:24:17;4.73;;;1.47;;
1759;SDS011;877;46.266;20.062;2024-03-25T14:26:44;2.70;;;1.17;;
1759;SDS011;877;46.266;20.062;2024-03-25T14:29:11;3.27;;;1.27;;
1759;SDS011;877;46.266;20.062;2024-03-25T14:31:37;4.93;;;1.37;;
1759;SDS011;877;46.266;20.062;2024-03-25T14:34:03;4.77;;;1.43;;
1759;SDS011;877;46.266;20.062;2024-03-25T14:36:30;3.50;;;0.93;;
1759;SDS011;877;46.266;20.062;2024-03-25T14:38:57;3.83;;;1.70;;
1759;SDS011;877;46.266;20.062;2024-03-25T14:41:23;2.83;;;1.20;;
1759;SDS011;877;46.266;20.062;2024-03-25T14:43:49;4.20;;;1.50;;
1759;SDS011;877;46.266;20.062;2024-03-25T14:46:16;2.80;;;1.10;;
1759;SDS011;877;46.266;20.062;2024-03-25T14:48:42;3.50;;;1.57;;
1759;SDS011;877;46.266;20.062;2024-03-25T14:51:08;3.20;;;1.70;;
1759;SDS011;877;46.266;20.062;2024-03-25T14:53:34;2.93;;;1.37;;
1759;SDS011;877;46.266;20.062;2024-03-25T14:56:00;4.00;;;1.30;;
1759;SDS011;877;46.266;20.062;2024-03-25T14:58:26;4.10;;;1.90;;
1759;SDS011;877;46.266;20.062;2024-03-25T15:00:52;4.67;;;1.30;;
1759;SDS011;877;46.266;20.062;2024-03-25T15:03:18;4.47;;;1.60;;
1759;SDS011;877;46.266;20.062;2024-03-25T15:05:45;6.00;;;1.50;;
1759;SDS011;877;46.266;20.062;2024-03-25T15:08:11;3.77;;;2.00;;
1759;SDS011;877;46.266;20.062;2024-03-25T15:10:37;3.60;;;1.00;;
1759;SDS011;877;46.266;20.062;2024-03-25T15:13:03;4.30;;;1.70;;